sensor_id;sensor_type;location;lat;lon;timestamp;temperature;humidity
35635;DHT22;21757;43.610;1.440;2024-03-02T00:00:25;9.40;99.90
35635;DHT22;21757;43.610;1.440;2024-03-02T00:02:52;9.30;99.90
35635;DHT22;21757;43.610;1.440;2024-03-02T00:05:22;9.30;99.90
35635;DHT22;21757;43.610;1.440;2024-03-02T00:07:57;9.30;99.90
35635;DHT22;21757;43.610;1.440;2024-03-02T00:10:26;9.30;99.90
35635;DHT22;21757;43.610;1.440;2024-03-02T00:12:56;9.30;99.90
35635;DHT22;21757;43.610;1.440;2024-03-02T00:15:38;9.30;99.90
35635;DHT22;21757;43.610;1.440;2024-03-02T00:18:08;9.30;99.90
35635;DHT22;21757;43.610;1.440;2024-03-02T00:20:35;9.30;99.90
35635;DHT22;21757;43.610;1.440;2024-03-02T00:23:08;9.50;99.90
35635;DHT22;21757;43.610;1.440;2024-03-02T00:25:51;9.60;99.90
35635;DHT22;21757;43.610;1.440;2024-03-02T00:28:35;9.70;99.90
35635;DHT22;21757;43.610;1.440;2024-03-02T00:31:09;9.80;99.90
35635;DHT22;21757;43.610;1.440;2024-03-02T00:33:47;9.80;99.90
35635;DHT22;21757;43.610;1.440;2024-03-02T00:36:15;9.90;99.90
35635;DHT22;21757;43.610;1.440;2024-03-02T00:38:49;9.90;99.90
35635;DHT22;21757;43.610;1.440;2024-03-02T00:41:31;9.90;99.90
35635;DHT22;21757;43.610;1.440;2024-03-02T00:46:29;9.90;99.90
35635;DHT22;21757;43.610;1.440;2024-03-02T00:48:57;9.90;99.90
35635;DHT22;21757;43.610;1.440;2024-03-02T00:51:25;10.00;99.90
35635;DHT22;21757;43.610;1.440;2024-03-02T00:53:52;10.00;99.90
35635;DHT22;21757;43.610;1.440;2024-03-02T00:56:18;10.00;99.90
35635;DHT22;21757;43.610;1.440;2024-03-02T00:58:44;10.10;99.90
35635;DHT22;21757;43.610;1.440;2024-03-02T01:01:10;10.10;99.90
35635;DHT22;21757;43.610;1.440;2024-03-02T01:03:36;10.10;99.90
35635;DHT22;21757;43.610;1.440;2024-03-02T01:06:03;10.10;99.90
35635;DHT22;21757;43.610;1.440;2024-03-02T01:08:28;10.20;99.90
35635;DHT22;21757;43.610;1.440;2024-03-02T01:10:54;10.10;99.90
35635;DHT22;21757;43.610;1.440;2024-03-02T01:13:24;10.10;99.90
35635;DHT22;21757;43.610;1.440;2024-03-02T01:15:50;10.10;99.90
35635;DHT22;21757;43.610;1.440;2024-03-02T01:18:16;10.20;99.90
35635;DHT22;21757;43.610;1.440;2024-03-02T01:20:41;10.10;99.90
35635;DHT22;21757;43.610;1.440;2024-03-02T01:23:07;10.10;99.90
35635;DHT22;21757;43.610;1.440;2024-03-02T01:25:33;10.10;99.90
35635;DHT22;21757;43.610;1.440;2024-03-02T01:27:58;10.10;99.90
35635;DHT22;21757;43.610;1.440;2024-03-02T01:30:24;10.10;99.90
35635;DHT22;21757;43.610;1.440;2024-03-02T01:32:50;10.10;99.90
35635;DHT22;21757;43.610;1.440;2024-03-02T01:35:15;10.10;99.90
35635;DHT22;21757;43.610;1.440;2024-03-02T01:37:41;10.20;99.90
35635;DHT22;21757;43.610;1.440;2024-03-02T01:40:07;10.20;99.90
35635;DHT22;21757;43.610;1.440;2024-03-02T01:42:38;10.10;99.90
35635;DHT22;21757;43.610;1.440;2024-03-02T01:45:08;10.10;99.90
35635;DHT22;21757;43.610;1.440;2024-03-02T01:47:34;10.10;99.90
35635;DHT22;21757;43.610;1.440;2024-03-02T01:50:00;10.10;99.90
35635;DHT22;21757;43.610;1.440;2024-03-02T01:52:27;10.10;99.90
35635;DHT22;21757;43.610;1.440;2024-03-02T01:54:52;10.10;99.90
35635;DHT22;21757;43.610;1.440;2024-03-02T01:57:19;10.20;99.90
35635;DHT22;21757;43.610;1.440;2024-03-02T01:59:45;10.10;99.90
35635;DHT22;21757;43.610;1.440;2024-03-02T02:02:13;10.10;99.90
35635;DHT22;21757;43.610;1.440;2024-03-02T02:04:39;10.10;99.90
35635;DHT22;21757;43.610;1.440;2024-03-02T02:07:05;10.10;99.90
35635;DHT22;21757;43.610;1.440;2024-03-02T02:09:32;10.00;99.90
35635;DHT22;21757;43.610;1.440;2024-03-02T02:11:57;10.00;99.90
35635;DHT22;21757;43.610;1.440;2024-03-02T02:14:23;10.00;99.90
35635;DHT22;21757;43.610;1.440;2024-03-02T02:16:49;10.00;99.90
35635;DHT22;21757;43.610;1.440;2024-03-02T02:19:15;9.90;99.90
35635;DHT22;21757;43.610;1.440;2024-03-02T02:21:44;9.70;99.90
35635;DHT22;21757;43.610;1.440;2024-03-02T02:24:09;9.70;99.90
35635;DHT22;21757;43.610;1.440;2024-03-02T02:26:35;9.70;99.90
35635;DHT22;21757;43.610;1.440;2024-03-02T02:29:01;9.70;99.90
35635;DHT22;21757;43.610;1.440;2024-03-02T02:31:36;9.80;99.90
35635;DHT22;21757;43.610;1.440;2024-03-02T02:34:02;9.80;99.90
35635;DHT22;21757;43.610;1.440;2024-03-02T02:36:28;9.80;99.90
35635;DHT22;21757;43.610;1.440;2024-03-02T02:38:54;9.90;99.90
35635;DHT22;21757;43.610;1.440;2024-03-02T02:41:20;9.90;99.90
35635;DHT22;21757;43.610;1.440;2024-03-02T02:43:46;10.00;99.90
35635;DHT22;21757;43.610;1.440;2024-03-02T02:46:11;9.90;99.90
35635;DHT22;21757;43.610;1.440;2024-03-02T02:48:37;9.80;99.90
35635;DHT22;21757;43.610;1.440;2024-03-02T02:51:03;9.70;99.90
35635;DHT22;21757;43.610;1.440;2024-03-02T02:53:28;9.60;99.90
35635;DHT22;21757;43.610;1.440;2024-03-02T02:55:54;9.60;99.90
35635;DHT22;21757;43.610;1.440;2024-03-02T02:58:20;9.60;99.90
35635;DHT22;21757;43.610;1.440;2024-03-02T03:00:46;9.70;99.90
35635;DHT22;21757;43.610;1.440;2024-03-02T03:03:12;9.70;99.90
35635;DHT22;21757;43.610;1.440;2024-03-02T03:05:37;9.60;99.90
35635;DHT22;21757;43.610;1.440;2024-03-02T03:08:04;9.50;99.90
35635;DHT22;21757;43.610;1.440;2024-03-02T03:10:30;9.50;99.90
35635;DHT22;21757;43.610;1.440;2024-03-02T03:12:55;9.40;99.90
35635;DHT22;21757;43.610;1.440;2024-03-02T03:15:21;9.30;99.90
35635;DHT22;21757;43.610;1.440;2024-03-02T03:17:47;9.20;99.90
35635;DHT22;21757;43.610;1.440;2024-03-02T03:20:13;9.20;99.90
35635;DHT22;21757;43.610;1.440;2024-03-02T03:22:40;9.10;99.90
35635;DHT22;21757;43.610;1.440;2024-03-02T03:25:06;9.00;99.90
35635;DHT22;21757;43.610;1.440;2024-03-02T03:27:33;9.00;99.90
35635;DHT22;21757;43.610;1.440;2024-03-02T03:29:59;9.00;99.90
35635;DHT22;21757;43.610;1.440;2024-03-02T03:32:24;8.90;99.90
35635;DHT22;21757;43.610;1.440;2024-03-02T03:34:50;8.90;99.90
35635;DHT22;21757;43.610;1.440;2024-03-02T03:37:16;8.90;99.90
35635;DHT22;21757;43.610;1.440;2024-03-02T03:39:42;8.80;99.90
35635;DHT22;21757;43.610;1.440;2024-03-02T03:42:07;8.80;99.90
35635;DHT22;21757;43.610;1.440;2024-03-02T03:44:36;8.70;99.90
35635;DHT22;21757;43.610;1.440;2024-03-02T03:47:01;8.80;99.90
35635;DHT22;21757;43.610;1.440;2024-03-02T03:49:28;8.70;99.90
35635;DHT22;21757;43.610;1.440;2024-03-02T03:51:53;8.80;99.90
35635;DHT22;21757;43.610;1.440;2024-03-02T03:54:19;8.80;99.90
35635;DHT22;21757;43.610;1.440;2024-03-02T03:56:45;8.80;99.90
35635;DHT22;21757;43.610;1.440;2024-03-02T03:59:10;8.80;99.90
35635;DHT22;21757;43.610;1.440;2024-03-02T04:01:37;8.80;99.90
35635;DHT22;21757;43.610;1.440;2024-03-02T04:04:02;8.80;99.90
35635;DHT22;21757;43.610;1.440;2024-03-02T04:06:29;8.70;99.90
35635;DHT22;21757;43.610;1.440;2024-03-02T04:08:55;8.70;99.90
35635;DHT22;21757;43.610;1.440;2024-03-02T04:11:21;8.70;99.90
35635;DHT22;21757;43.610;1.440;2024-03-02T04:13:46;8.70;99.90
35635;DHT22;21757;43.610;1.440;2024-03-02T04:16:12;8.70;99.90
35635;DHT22;21757;43.610;1.440;2024-03-02T04:18:38;8.80;99.90
35635;DHT22;21757;43.610;1.440;2024-03-02T04:21:05;8.80;99.90
35635;DHT22;21757;43.610;1.440;2024-03-02T04:23:30;8.80;99.90
35635;DHT22;21757;43.610;1.440;2024-03-02T04:25:56;8.90;99.90
35635;DHT22;21757;43.610;1.440;2024-03-02T04:28:22;8.90;99.90
35635;DHT22;21757;43.610;1.440;2024-03-02T04:30:47;8.90;99.90
35635;DHT22;21757;43.610;1.440;2024-03-02T04:33:13;8.90;99.90
35635;DHT22;21757;43.610;1.440;2024-03-02T04:35:39;8.90;99.90
35635;DHT22;21757;43.610;1.440;2024-03-02T04:38:04;8.90;99.90
35635;DHT22;21757;43.610;1.440;2024-03-02T04:40:30;8.90;99.90
35635;DHT22;21757;43.610;1.440;2024-03-02T04:42:56;9.00;99.90
35635;DHT22;21757;43.610;1.440;2024-03-02T04:45:21;8.90;99.90
35635;DHT22;21757;43.610;1.440;2024-03-02T04:47:47;8.90;99.90
35635;DHT22;21757;43.610;1.440;2024-03-02T04:50:13;8.90;99.90
35635;DHT22;21757;43.610;1.440;2024-03-02T04:52:38;9.00;99.90
35635;DHT22;21757;43.610;1.440;2024-03-02T04:55:04;8.90;99.90
35635;DHT22;21757;43.610;1.440;2024-03-02T04:57:56;8.90;99.90
35635;DHT22;21757;43.610;1.440;2024-03-02T05:00:22;8.90;99.90
35635;DHT22;21757;43.610;1.440;2024-03-02T05:02:48;8.80;99.90
35635;DHT22;21757;43.610;1.440;2024-03-02T05:05:13;8.90;99.90
35635;DHT22;21757;43.610;1.440;2024-03-02T05:07:42;8.90;99.90
35635;DHT22;21757;43.610;1.440;2024-03-02T05:10:10;8.90;99.90
35635;DHT22;21757;43.610;1.440;2024-03-02T05:12:37;8.90;99.90
35635;DHT22;21757;43.610;1.440;2024-03-02T05:15:09;8.80;99.90
35635;DHT22;21757;43.610;1.440;2024-03-02T05:17:36;8.80;99.90
35635;DHT22;21757;43.610;1.440;2024-03-02T05:20:06;8.80;99.90
35635;DHT22;21757;43.610;1.440;2024-03-02T05:22:33;8.80;99.90
35635;DHT22;21757;43.610;1.440;2024-03-02T05:24:59;8.70;99.90
35635;DHT22;21757;43.610;1.440;2024-03-02T05:27:29;8.70;99.90
35635;DHT22;21757;43.610;1.440;2024-03-02T05:29:55;8.80;99.90
35635;DHT22;21757;43.610;1.440;2024-03-02T05:32:20;8.80;99.90
35635;DHT22;21757;43.610;1.440;2024-03-02T05:34:46;8.80;99.90
35635;DHT22;21757;43.610;1.440;2024-03-02T05:37:12;8.80;99.90
35635;DHT22;21757;43.610;1.440;2024-03-02T05:39:37;8.80;99.90
35635;DHT22;21757;43.610;1.440;2024-03-02T05:42:03;8.80;99.90
35635;DHT22;21757;43.610;1.440;2024-03-02T05:44:29;8.80;99.90
35635;DHT22;21757;43.610;1.440;2024-03-02T05:46:55;8.80;99.90
35635;DHT22;21757;43.610;1.440;2024-03-02T05:49:21;8.80;99.90
35635;DHT22;21757;43.610;1.440;2024-03-02T05:51:47;8.80;99.90
35635;DHT22;21757;43.610;1.440;2024-03-02T05:54:13;8.80;99.90
35635;DHT22;21757;43.610;1.440;2024-03-02T05:56:38;8.80;99.90
35635;DHT22;21757;43.610;1.440;2024-03-02T05:59:04;8.80;99.90
35635;DHT22;21757;43.610;1.440;2024-03-02T06:01:48;8.70;99.90
35635;DHT22;21757;43.610;1.440;2024-03-02T06:04:16;8.70;99.90
35635;DHT22;21757;43.610;1.440;2024-03-02T06:06:42;8.60;99.90
35635;DHT22;21757;43.610;1.440;2024-03-02T06:09:08;8.70;99.90
35635;DHT22;21757;43.610;1.440;2024-03-02T06:11:37;8.70;99.90
35635;DHT22;21757;43.610;1.440;2024-03-02T06:14:07;8.60;99.90
35635;DHT22;21757;43.610;1.440;2024-03-02T06:16:33;8.70;99.90
35635;DHT22;21757;43.610;1.440;2024-03-02T06:18:59;8.70;99.90
35635;DHT22;21757;43.610;1.440;2024-03-02T06:21:26;8.70;99.90
35635;DHT22;21757;43.610;1.440;2024-03-02T06:23:51;8.60;99.90
35635;DHT22;21757;43.610;1.440;2024-03-02T06:26:17;8.60;99.90
35635;DHT22;21757;43.610;1.440;2024-03-02T06:28:44;8.70;99.90
35635;DHT22;21757;43.610;1.440;2024-03-02T06:31:09;8.70;99.90
35635;DHT22;21757;43.610;1.440;2024-03-02T06:33:35;8.70;99.90
35635;DHT22;21757;43.610;1.440;2024-03-02T06:36:01;8.60;99.90
35635;DHT22;21757;43.610;1.440;2024-03-02T06:38:27;8.60;99.90
35635;DHT22;21757;43.610;1.440;2024-03-02T06:40:53;8.70;99.90
35635;DHT22;21757;43.610;1.440;2024-03-02T06:43:19;8.60;99.90
35635;DHT22;21757;43.610;1.440;2024-03-02T06:45:49;8.60;99.90
35635;DHT22;21757;43.610;1.440;2024-03-02T06:48:14;8.50;99.90
35635;DHT22;21757;43.610;1.440;2024-03-02T06:50:44;8.60;99.90
35635;DHT22;21757;43.610;1.440;2024-03-02T06:53:09;8.60;99.90
35635;DHT22;21757;43.610;1.440;2024-03-02T06:55:35;8.60;99.90
35635;DHT22;21757;43.610;1.440;2024-03-02T06:58:00;8.70;99.90
35635;DHT22;21757;43.610;1.440;2024-03-02T07:00:26;8.70;99.90
35635;DHT22;21757;43.610;1.440;2024-03-02T07:02:52;8.70;99.90
35635;DHT22;21757;43.610;1.440;2024-03-02T07:05:17;8.80;99.90
35635;DHT22;21757;43.610;1.440;2024-03-02T07:07:43;8.90;99.90
35635;DHT22;21757;43.610;1.440;2024-03-02T07:10:09;8.90;99.90
35635;DHT22;21757;43.610;1.440;2024-03-02T07:12:34;9.00;99.90
35635;DHT22;21757;43.610;1.440;2024-03-02T07:15:00;9.10;99.90
35635;DHT22;21757;43.610;1.440;2024-03-02T07:17:29;9.20;99.90
35635;DHT22;21757;43.610;1.440;2024-03-02T07:19:55;9.20;99.90
35635;DHT22;21757;43.610;1.440;2024-03-02T07:22:20;9.20;99.90
35635;DHT22;21757;43.610;1.440;2024-03-02T07:24:46;9.20;99.90
35635;DHT22;21757;43.610;1.440;2024-03-02T07:27:13;9.10;99.90
35635;DHT22;21757;43.610;1.440;2024-03-02T07:29:39;9.10;99.90
35635;DHT22;21757;43.610;1.440;2024-03-02T07:32:06;9.00;99.90
35635;DHT22;21757;43.610;1.440;2024-03-02T07:34:32;9.00;99.90
35635;DHT22;21757;43.610;1.440;2024-03-02T07:36:58;9.00;99.90
35635;DHT22;21757;43.610;1.440;2024-03-02T07:39:23;9.00;99.90
35635;DHT22;21757;43.610;1.440;2024-03-02T07:41:49;9.00;99.90
35635;DHT22;21757;43.610;1.440;2024-03-02T07:44:15;9.10;99.90
35635;DHT22;21757;43.610;1.440;2024-03-02T07:46:45;9.10;99.90
35635;DHT22;21757;43.610;1.440;2024-03-02T07:49:18;9.30;99.90
35635;DHT22;21757;43.610;1.440;2024-03-02T07:51:44;9.60;99.90
35635;DHT22;21757;43.610;1.440;2024-03-02T07:54:10;9.60;99.90
35635;DHT22;21757;43.610;1.440;2024-03-02T07:56:36;9.60;99.90
35635;DHT22;21757;43.610;1.440;2024-03-02T07:59:02;9.70;99.90
35635;DHT22;21757;43.610;1.440;2024-03-02T08:01:32;9.70;99.90
35635;DHT22;21757;43.610;1.440;2024-03-02T08:04:01;9.70;99.90
35635;DHT22;21757;43.610;1.440;2024-03-02T08:06:29;9.70;99.90
35635;DHT22;21757;43.610;1.440;2024-03-02T08:08:56;9.70;99.90
35635;DHT22;21757;43.610;1.440;2024-03-02T08:11:22;9.70;99.90
35635;DHT22;21757;43.610;1.440;2024-03-02T08:13:48;9.70;99.90
35635;DHT22;21757;43.610;1.440;2024-03-02T08:16:17;9.80;99.90
35635;DHT22;21757;43.610;1.440;2024-03-02T08:18:46;9.90;99.90
35635;DHT22;21757;43.610;1.440;2024-03-02T08:21:13;10.10;99.90
35635;DHT22;21757;43.610;1.440;2024-03-02T08:23:38;10.40;99.90
35635;DHT22;21757;43.610;1.440;2024-03-02T08:26:06;10.50;99.90
35635;DHT22;21757;43.610;1.440;2024-03-02T08:28:32;10.80;99.90
35635;DHT22;21757;43.610;1.440;2024-03-02T08:30:58;10.90;99.90
35635;DHT22;21757;43.610;1.440;2024-03-02T08:33:42;10.90;99.90
35635;DHT22;21757;43.610;1.440;2024-03-02T08:36:14;10.90;99.90
35635;DHT22;21757;43.610;1.440;2024-03-02T08:38:42;11.00;99.90
35635;DHT22;21757;43.610;1.440;2024-03-02T08:41:09;11.10;99.90
35635;DHT22;21757;43.610;1.440;2024-03-02T08:43:35;11.30;99.90
35635;DHT22;21757;43.610;1.440;2024-03-02T08:46:01;11.30;99.90
35635;DHT22;21757;43.610;1.440;2024-03-02T08:48:27;11.20;99.90
35635;DHT22;21757;43.610;1.440;2024-03-02T08:50:52;11.20;99.90
35635;DHT22;21757;43.610;1.440;2024-03-02T08:53:18;11.30;99.90
35635;DHT22;21757;43.610;1.440;2024-03-02T08:55:45;11.30;99.90
35635;DHT22;21757;43.610;1.440;2024-03-02T08:58:11;11.40;99.90
35635;DHT22;21757;43.610;1.440;2024-03-02T09:00:37;11.40;99.90
35635;DHT22;21757;43.610;1.440;2024-03-02T09:03:03;11.50;99.90
35635;DHT22;21757;43.610;1.440;2024-03-02T09:05:29;11.50;99.90
35635;DHT22;21757;43.610;1.440;2024-03-02T09:07:55;11.60;99.90
35635;DHT22;21757;43.610;1.440;2024-03-02T09:10:21;11.60;99.90
35635;DHT22;21757;43.610;1.440;2024-03-02T09:12:46;11.70;99.90
35635;DHT22;21757;43.610;1.440;2024-03-02T09:15:12;11.80;99.90
35635;DHT22;21757;43.610;1.440;2024-03-02T09:17:38;11.90;99.90
35635;DHT22;21757;43.610;1.440;2024-03-02T09:20:05;12.10;99.90
35635;DHT22;21757;43.610;1.440;2024-03-02T09:22:30;12.10;99.90
35635;DHT22;21757;43.610;1.440;2024-03-02T09:24:57;12.20;99.90
35635;DHT22;21757;43.610;1.440;2024-03-02T09:27:23;12.10;99.90
35635;DHT22;21757;43.610;1.440;2024-03-02T09:29:49;12.20;99.90
35635;DHT22;21757;43.610;1.440;2024-03-02T09:32:15;12.20;99.90
35635;DHT22;21757;43.610;1.440;2024-03-02T09:34:41;12.30;99.90
35635;DHT22;21757;43.610;1.440;2024-03-02T09:37:07;12.40;99.90
35635;DHT22;21757;43.610;1.440;2024-03-02T09:39:35;12.30;99.90
35635;DHT22;21757;43.610;1.440;2024-03-02T09:42:00;12.10;99.90
35635;DHT22;21757;43.610;1.440;2024-03-02T09:44:26;12.00;99.90
35635;DHT22;21757;43.610;1.440;2024-03-02T09:46:52;11.90;99.90
35635;DHT22;21757;43.610;1.440;2024-03-02T09:49:18;11.90;99.90
35635;DHT22;21757;43.610;1.440;2024-03-02T09:51:47;11.90;99.90
35635;DHT22;21757;43.610;1.440;2024-03-02T09:54:13;11.90;99.90
35635;DHT22;21757;43.610;1.440;2024-03-02T09:56:39;11.90;99.90
35635;DHT22;21757;43.610;1.440;2024-03-02T09:59:05;12.00;99.90
35635;DHT22;21757;43.610;1.440;2024-03-02T10:01:31;11.90;99.90
35635;DHT22;21757;43.610;1.440;2024-03-02T10:03:59;12.00;99.90
35635;DHT22;21757;43.610;1.440;2024-03-02T10:06:26;12.00;99.90
35635;DHT22;21757;43.610;1.440;2024-03-02T10:08:53;12.00;99.90
35635;DHT22;21757;43.610;1.440;2024-03-02T10:11:40;12.00;99.90
35635;DHT22;21757;43.610;1.440;2024-03-02T10:14:10;12.00;99.90
35635;DHT22;21757;43.610;1.440;2024-03-02T10:16:43;11.90;99.90
35635;DHT22;21757;43.610;1.440;2024-03-02T10:19:21;11.90;99.90
35635;DHT22;21757;43.610;1.440;2024-03-02T10:21:51;12.00;99.90
35635;DHT22;21757;43.610;1.440;2024-03-02T10:24:18;12.10;99.90
35635;DHT22;21757;43.610;1.440;2024-03-02T10:26:44;12.20;99.90
35635;DHT22;21757;43.610;1.440;2024-03-02T10:29:10;12.40;99.90
35635;DHT22;21757;43.610;1.440;2024-03-02T10:31:41;12.40;99.90
35635;DHT22;21757;43.610;1.440;2024-03-02T10:34:08;12.50;99.90
35635;DHT22;21757;43.610;1.440;2024-03-02T10:36:35;12.60;99.90
35635;DHT22;21757;43.610;1.440;2024-03-02T10:39:03;12.60;99.90
35635;DHT22;21757;43.610;1.440;2024-03-02T10:41:35;12.80;99.90
35635;DHT22;21757;43.610;1.440;2024-03-02T10:44:06;13.00;99.90
35635;DHT22;21757;43.610;1.440;2024-03-02T10:46:34;13.20;99.90
35635;DHT22;21757;43.610;1.440;2024-03-02T10:49:01;13.30;99.90
35635;DHT22;21757;43.610;1.440;2024-03-02T10:51:28;13.40;99.90
35635;DHT22;21757;43.610;1.440;2024-03-02T10:53:57;13.60;99.90
35635;DHT22;21757;43.610;1.440;2024-03-02T10:56:34;13.70;99.90
35635;DHT22;21757;43.610;1.440;2024-03-02T10:59:28;13.90;99.90
35635;DHT22;21757;43.610;1.440;2024-03-02T11:02:03;14.00;99.90
35635;DHT22;21757;43.610;1.440;2024-03-02T11:04:30;14.00;99.90
35635;DHT22;21757;43.610;1.440;2024-03-02T11:06:59;14.10;99.90
35635;DHT22;21757;43.610;1.440;2024-03-02T11:09:28;14.20;99.90
35635;DHT22;21757;43.610;1.440;2024-03-02T11:12:12;14.30;99.90
35635;DHT22;21757;43.610;1.440;2024-03-02T11:14:41;14.40;99.90
35635;DHT22;21757;43.610;1.440;2024-03-02T11:17:10;14.50;99.90
35635;DHT22;21757;43.610;1.440;2024-03-02T11:19:38;14.60;99.90
35635;DHT22;21757;43.610;1.440;2024-03-02T11:22:05;14.70;99.90
35635;DHT22;21757;43.610;1.440;2024-03-02T11:24:31;14.70;99.90
35635;DHT22;21757;43.610;1.440;2024-03-02T11:27:07;14.80;99.90
35635;DHT22;21757;43.610;1.440;2024-03-02T11:32:14;14.50;99.90
35635;DHT22;21757;43.610;1.440;2024-03-02T11:34:41;14.40;99.90
35635;DHT22;21757;43.610;1.440;2024-03-02T11:37:15;14.40;99.90
35635;DHT22;21757;43.610;1.440;2024-03-02T11:39:46;14.40;99.90
35635;DHT22;21757;43.610;1.440;2024-03-02T11:42:13;14.50;99.90
35635;DHT22;21757;43.610;1.440;2024-03-02T11:44:46;14.50;99.90
35635;DHT22;21757;43.610;1.440;2024-03-02T11:47:16;14.50;99.90
35635;DHT22;21757;43.610;1.440;2024-03-02T11:49:49;14.70;99.90
35635;DHT22;21757;43.610;1.440;2024-03-02T11:52:16;14.90;99.90
35635;DHT22;21757;43.610;1.440;2024-03-02T11:54:45;14.80;99.90
35635;DHT22;21757;43.610;1.440;2024-03-02T11:57:21;14.80;99.90
35635;DHT22;21757;43.610;1.440;2024-03-02T11:59:50;14.80;99.90
35635;DHT22;21757;43.610;1.440;2024-03-02T12:02:19;14.90;99.90
35635;DHT22;21757;43.610;1.440;2024-03-02T12:04:46;15.00;99.90
35635;DHT22;21757;43.610;1.440;2024-03-02T12:07:22;15.10;99.90
35635;DHT22;21757;43.610;1.440;2024-03-02T12:09:49;15.10;99.90
35635;DHT22;21757;43.610;1.440;2024-03-02T12:12:24;15.10;99.90
35635;DHT22;21757;43.610;1.440;2024-03-02T12:14:51;15.00;99.90
35635;DHT22;21757;43.610;1.440;2024-03-02T12:17:18;15.00;99.90
35635;DHT22;21757;43.610;1.440;2024-03-02T12:19:44;15.10;99.90
35635;DHT22;21757;43.610;1.440;2024-03-02T12:22:11;15.30;99.90
35635;DHT22;21757;43.610;1.440;2024-03-02T12:24:37;15.60;99.90
35635;DHT22;21757;43.610;1.440;2024-03-02T12:27:05;15.70;99.90
35635;DHT22;21757;43.610;1.440;2024-03-02T12:29:31;15.70;99.90
35635;DHT22;21757;43.610;1.440;2024-03-02T12:31:56;15.70;99.90
35635;DHT22;21757;43.610;1.440;2024-03-02T12:34:22;15.60;99.90
35635;DHT22;21757;43.610;1.440;2024-03-02T12:36:49;15.70;99.90
35635;DHT22;21757;43.610;1.440;2024-03-02T12:39:21;15.80;99.90
35635;DHT22;21757;43.610;1.440;2024-03-02T12:41:49;15.70;99.90
35635;DHT22;21757;43.610;1.440;2024-03-02T12:44:21;15.60;99.90
35635;DHT22;21757;43.610;1.440;2024-03-02T12:46:47;15.60;99.90
35635;DHT22;21757;43.610;1.440;2024-03-02T12:49:14;15.80;99.90
35635;DHT22;21757;43.610;1.440;2024-03-02T12:51:42;15.80;99.90
35635;DHT22;21757;43.610;1.440;2024-03-02T12:54:09;15.80;99.90
35635;DHT22;21757;43.610;1.440;2024-03-02T12:56:38;15.80;99.90
35635;DHT22;21757;43.610;1.440;2024-03-02T12:59:04;15.80;99.90
35635;DHT22;21757;43.610;1.440;2024-03-02T13:01:30;15.70;99.90
35635;DHT22;21757;43.610;1.440;2024-03-02T13:03:58;15.50;99.90
35635;DHT22;21757;43.610;1.440;2024-03-02T13:06:24;15.50;99.90
35635;DHT22;21757;43.610;1.440;2024-03-02T13:08:53;15.60;99.90
35635;DHT22;21757;43.610;1.440;2024-03-02T13:11:22;15.60;99.90
35635;DHT22;21757;43.610;1.440;2024-03-02T13:13:49;15.50;99.90
35635;DHT22;21757;43.610;1.440;2024-03-02T13:16:15;15.50;99.90
35635;DHT22;21757;43.610;1.440;2024-03-02T13:18:42;15.50;99.90
35635;DHT22;21757;43.610;1.440;2024-03-02T13:21:08;15.60;99.90
35635;DHT22;21757;43.610;1.440;2024-03-02T13:23:35;15.60;99.90
35635;DHT22;21757;43.610;1.440;2024-03-02T13:26:01;15.70;99.90
35635;DHT22;21757;43.610;1.440;2024-03-02T13:28:27;15.60;99.90
35635;DHT22;21757;43.610;1.440;2024-03-02T13:30:53;15.40;99.90
35635;DHT22;21757;43.610;1.440;2024-03-02T13:33:18;15.30;99.90
35635;DHT22;21757;43.610;1.440;2024-03-02T13:35:51;15.10;99.90
35635;DHT22;21757;43.610;1.440;2024-03-02T13:38:20;15.10;99.90
35635;DHT22;21757;43.610;1.440;2024-03-02T13:40:48;15.10;99.90
35635;DHT22;21757;43.610;1.440;2024-03-02T13:43:17;15.10;99.90
35635;DHT22;21757;43.610;1.440;2024-03-02T13:45:44;15.10;99.90
35635;DHT22;21757;43.610;1.440;2024-03-02T13:48:10;15.20;99.90
35635;DHT22;21757;43.610;1.440;2024-03-02T13:50:35;15.40;99.90
35635;DHT22;21757;43.610;1.440;2024-03-02T13:53:08;15.50;99.90
35635;DHT22;21757;43.610;1.440;2024-03-02T13:55:34;15.60;99.90
35635;DHT22;21757;43.610;1.440;2024-03-02T13:58:00;15.60;99.90
35635;DHT22;21757;43.610;1.440;2024-03-02T14:00:26;15.60;99.90
35635;DHT22;21757;43.610;1.440;2024-03-02T14:02:52;15.60;99.90
35635;DHT22;21757;43.610;1.440;2024-03-02T14:05:18;15.60;99.90
35635;DHT22;21757;43.610;1.440;2024-03-02T14:07:44;15.60;99.90
35635;DHT22;21757;43.610;1.440;2024-03-02T14:23:10;15.20;99.90
35635;DHT22;21757;43.610;1.440;2024-03-02T14:28:21;15.20;99.90
35635;DHT22;21757;43.610;1.440;2024-03-02T14:30:47;15.30;99.90
35635;DHT22;21757;43.610;1.440;2024-03-02T14:33:13;15.30;99.90
35635;DHT22;21757;43.610;1.440;2024-03-02T14:35:39;15.40;99.90
35635;DHT22;21757;43.610;1.440;2024-03-02T14:38:06;15.20;99.90
35635;DHT22;21757;43.610;1.440;2024-03-02T14:40:32;15.10;99.90
35635;DHT22;21757;43.610;1.440;2024-03-02T14:42:58;15.00;99.90
35635;DHT22;21757;43.610;1.440;2024-03-02T14:45:27;14.90;99.90
35635;DHT22;21757;43.610;1.440;2024-03-02T14:47:54;14.90;99.90
35635;DHT22;21757;43.610;1.440;2024-03-02T14:50:20;14.80;99.90
35635;DHT22;21757;43.610;1.440;2024-03-02T14:52:46;14.90;99.90
35635;DHT22;21757;43.610;1.440;2024-03-02T14:55:11;14.80;99.90
35635;DHT22;21757;43.610;1.440;2024-03-02T14:57:37;14.80;99.90
35635;DHT22;21757;43.610;1.440;2024-03-02T15:00:03;14.90;99.90
35635;DHT22;21757;43.610;1.440;2024-03-02T15:02:33;14.80;99.90
35635;DHT22;21757;43.610;1.440;2024-03-02T15:04:59;14.60;99.90
35635;DHT22;21757;43.610;1.440;2024-03-02T15:07:25;14.50;99.90
35635;DHT22;21757;43.610;1.440;2024-03-02T15:09:51;14.40;99.90
35635;DHT22;21757;43.610;1.440;2024-03-02T15:12:16;14.40;99.90
35635;DHT22;21757;43.610;1.440;2024-03-02T15:14:43;14.40;99.90
35635;DHT22;21757;43.610;1.440;2024-03-02T15:17:15;14.30;99.90
35635;DHT22;21757;43.610;1.440;2024-03-02T15:19:45;14.20;99.90
35635;DHT22;21757;43.610;1.440;2024-03-02T15:22:11;14.20;99.90
35635;DHT22;21757;43.610;1.440;2024-03-02T15:24:37;14.30;99.90
35635;DHT22;21757;43.610;1.440;2024-03-02T15:27:04;14.30;99.90
35635;DHT22;21757;43.610;1.440;2024-03-02T15:29:31;14.40;99.90
35635;DHT22;21757;43.610;1.440;2024-03-02T15:31:57;14.50;99.90
35635;DHT22;21757;43.610;1.440;2024-03-02T15:34:23;14.40;99.90
35635;DHT22;21757;43.610;1.440;2024-03-02T15:36:49;14.40;99.90
35635;DHT22;21757;43.610;1.440;2024-03-02T15:39:15;14.30;99.90
35635;DHT22;21757;43.610;1.440;2024-03-02T15:41:44;14.20;99.90
35635;DHT22;21757;43.610;1.440;2024-03-02T15:44:10;14.30;99.90
35635;DHT22;21757;43.610;1.440;2024-03-02T15:46:35;14.20;99.90
35635;DHT22;21757;43.610;1.440;2024-03-02T15:49:01;14.30;99.90
35635;DHT22;21757;43.610;1.440;2024-03-02T15:51:27;14.30;99.90
35635;DHT22;21757;43.610;1.440;2024-03-02T15:53:53;14.30;99.90
35635;DHT22;21757;43.610;1.440;2024-03-02T15:56:19;14.20;99.90
35635;DHT22;21757;43.610;1.440;2024-03-02T15:58:45;14.10;99.90